sensor_id;sensor_type;location;lat;lon;timestamp;temperature;humidity
69204;DHT22;56317;27.658;85.326;2023-01-10T00:01:24;4.40;99.90
69204;DHT22;56317;27.658;85.326;2023-01-10T00:03:51;4.40;99.90
69204;DHT22;56317;27.658;85.326;2023-01-10T00:06:19;4.40;99.90
69204;DHT22;56317;27.658;85.326;2023-01-10T00:08:46;4.30;99.90
69204;DHT22;56317;27.658;85.326;2023-01-10T00:11:14;4.30;99.90
69204;DHT22;56317;27.658;85.326;2023-01-10T00:13:59;4.30;99.90
69204;DHT22;56317;27.658;85.326;2023-01-10T00:16:26;4.20;99.90
69204;DHT22;56317;27.658;85.326;2023-01-10T00:18:53;4.20;99.90
69204;DHT22;56317;27.658;85.326;2023-01-10T00:21:21;4.10;99.90
69204;DHT22;56317;27.658;85.326;2023-01-10T00:23:48;4.10;99.90
69204;DHT22;56317;27.658;85.326;2023-01-10T00:26:15;4.10;99.90
69204;DHT22;56317;27.658;85.326;2023-01-10T00:28:42;4.00;99.90
69204;DHT22;56317;27.658;85.326;2023-01-10T00:31:10;4.00;99.90
69204;DHT22;56317;27.658;85.326;2023-01-10T00:33:39;3.90;99.90
69204;DHT22;56317;27.658;85.326;2023-01-10T00:36:07;4.00;99.90
69204;DHT22;56317;27.658;85.326;2023-01-10T00:38:35;4.00;99.90
69204;DHT22;56317;27.658;85.326;2023-01-10T00:41:03;4.00;99.90
69204;DHT22;56317;27.658;85.326;2023-01-10T00:43:50;4.00;99.90
69204;DHT22;56317;27.658;85.326;2023-01-10T00:46:23;4.00;99.90
69204;DHT22;56317;27.658;85.326;2023-01-10T00:48:50;3.90;99.90
69204;DHT22;56317;27.658;85.326;2023-01-10T00:51:18;3.90;99.90
69204;DHT22;56317;27.658;85.326;2023-01-10T00:53:45;3.90;99.90
69204;DHT22;56317;27.658;85.326;2023-01-10T00:56:12;3.90;99.90
69204;DHT22;56317;27.658;85.326;2023-01-10T00:58:40;3.80;99.90
69204;DHT22;56317;27.658;85.326;2023-01-10T01:01:07;3.80;99.90
69204;DHT22;56317;27.658;85.326;2023-01-10T01:03:34;3.80;99.90
69204;DHT22;56317;27.658;85.326;2023-01-10T01:06:05;3.90;99.90
69204;DHT22;56317;27.658;85.326;2023-01-10T01:08:33;3.90;99.90
69204;DHT22;56317;27.658;85.326;2023-01-10T01:11:01;3.90;99.90
69204;DHT22;56317;27.658;85.326;2023-01-10T01:13:28;3.90;99.90
69204;DHT22;56317;27.658;85.326;2023-01-10T01:15:58;3.90;99.90
69204;DHT22;56317;27.658;85.326;2023-01-10T01:18:26;4.00;99.90
69204;DHT22;56317;27.658;85.326;2023-01-10T01:20:55;4.00;99.90
69204;DHT22;56317;27.658;85.326;2023-01-10T01:23:23;4.10;99.90
69204;DHT22;56317;27.658;85.326;2023-01-10T01:25:51;4.10;99.90
69204;DHT22;56317;27.658;85.326;2023-01-10T01:28:19;4.20;99.90
69204;DHT22;56317;27.658;85.326;2023-01-10T01:30:47;4.30;99.90
69204;DHT22;56317;27.658;85.326;2023-01-10T01:33:15;4.30;99.90
69204;DHT22;56317;27.658;85.326;2023-01-10T01:35:44;4.40;99.90
69204;DHT22;56317;27.658;85.326;2023-01-10T01:38:11;4.40;99.90
69204;DHT22;56317;27.658;85.326;2023-01-10T01:40:39;4.50;99.90
69204;DHT22;56317;27.658;85.326;2023-01-10T01:43:27;4.60;99.90
69204;DHT22;56317;27.658;85.326;2023-01-10T01:45:55;4.70;99.90
69204;DHT22;56317;27.658;85.326;2023-01-10T01:51:09;4.90;99.90
69204;DHT22;56317;27.658;85.326;2023-01-10T01:53:47;5.00;99.90
69204;DHT22;56317;27.658;85.326;2023-01-10T01:56:29;5.20;99.90
69204;DHT22;56317;27.658;85.326;2023-01-10T01:59:21;5.20;99.90
69204;DHT22;56317;27.658;85.326;2023-01-10T02:01:55;5.30;99.90
69204;DHT22;56317;27.658;85.326;2023-01-10T02:04:26;5.40;99.90
69204;DHT22;56317;27.658;85.326;2023-01-10T02:06:56;5.60;99.90
69204;DHT22;56317;27.658;85.326;2023-01-10T02:09:41;5.80;99.90
69204;DHT22;56317;27.658;85.326;2023-01-10T02:12:12;5.90;99.90
69204;DHT22;56317;27.658;85.326;2023-01-10T02:14:42;6.10;99.90
69204;DHT22;56317;27.658;85.326;2023-01-10T02:17:11;6.20;99.90
69204;DHT22;56317;27.658;85.326;2023-01-10T02:19:55;6.50;99.90
69204;DHT22;56317;27.658;85.326;2023-01-10T02:33:48;7.90;99.90
69204;DHT22;56317;27.658;85.326;2023-01-10T02:36:34;8.20;99.90
69204;DHT22;56317;27.658;85.326;2023-01-10T02:39:24;8.50;99.90
69204;DHT22;56317;27.658;85.326;2023-01-10T02:44:28;9.10;99.90
69204;DHT22;56317;27.658;85.326;2023-01-10T02:46:57;9.20;99.90
69204;DHT22;56317;27.658;85.326;2023-01-10T02:49:24;9.40;99.90
69204;DHT22;56317;27.658;85.326;2023-01-10T02:51:51;9.70;99.90
69204;DHT22;56317;27.658;85.326;2023-01-10T02:54:24;10.00;99.90
69204;DHT22;56317;27.658;85.326;2023-01-10T02:57:19;10.30;99.90
69204;DHT22;56317;27.658;85.326;2023-01-10T02:59:54;10.50;99.90
69204;DHT22;56317;27.658;85.326;2023-01-10T03:05:04;10.90;99.90
69204;DHT22;56317;27.658;85.326;2023-01-10T03:07:56;11.20;99.90
69204;DHT22;56317;27.658;85.326;2023-01-10T03:15:55;12.20;99.90
69204;DHT22;56317;27.658;85.326;2023-01-10T03:18:37;12.40;98.20
69204;DHT22;56317;27.658;85.326;2023-01-10T03:21:07;12.70;98.50
69204;DHT22;56317;27.658;85.326;2023-01-10T03:23:35;13.00;96.60
69204;DHT22;56317;27.658;85.326;2023-01-10T03:26:04;13.40;95.90
69204;DHT22;56317;27.658;85.326;2023-01-10T03:28:35;13.60;94.70
69204;DHT22;56317;27.658;85.326;2023-01-10T03:31:27;13.90;93.90
69204;DHT22;56317;27.658;85.326;2023-01-10T03:33:57;14.20;92.70
69204;DHT22;56317;27.658;85.326;2023-01-10T03:36:31;14.50;91.90
69204;DHT22;56317;27.658;85.326;2023-01-10T03:42:24;15.70;87.60
69204;DHT22;56317;27.658;85.326;2023-01-10T03:45:08;16.60;86.70
69204;DHT22;56317;27.658;85.326;2023-01-10T03:47:45;17.40;83.30
69204;DHT22;56317;27.658;85.326;2023-01-10T03:50:22;18.00;75.90
69204;DHT22;56317;27.658;85.326;2023-01-10T03:52:50;18.60;78.10
69204;DHT22;56317;27.658;85.326;2023-01-10T03:55:21;19.10;71.30
69204;DHT22;56317;27.658;85.326;2023-01-10T03:57:48;19.50;65.20
69204;DHT22;56317;27.658;85.326;2023-01-10T04:00:16;19.90;66.60
69204;DHT22;56317;27.658;85.326;2023-01-10T04:02:44;20.40;61.60
69204;DHT22;56317;27.658;85.326;2023-01-10T04:05:12;20.60;61.70
69204;DHT22;56317;27.658;85.326;2023-01-10T04:07:39;20.70;61.50
69204;DHT22;56317;27.658;85.326;2023-01-10T04:10:07;21.30;62.40
69204;DHT22;56317;27.658;85.326;2023-01-10T04:12:34;21.80;59.40
69204;DHT22;56317;27.658;85.326;2023-01-10T04:15:02;21.90;58.90
69204;DHT22;56317;27.658;85.326;2023-01-10T04:17:29;21.80;56.80
69204;DHT22;56317;27.658;85.326;2023-01-10T04:19:56;21.50;54.80
69204;DHT22;56317;27.658;85.326;2023-01-10T04:22:24;21.50;55.50
69204;DHT22;56317;27.658;85.326;2023-01-10T04:24:51;21.60;55.30
69204;DHT22;56317;27.658;85.326;2023-01-10T04:27:20;21.80;53.80
69204;DHT22;56317;27.658;85.326;2023-01-10T04:29:47;22.60;53.20
69204;DHT22;56317;27.658;85.326;2023-01-10T04:32:15;23.40;51.20
69204;DHT22;56317;27.658;85.326;2023-01-10T04:34:42;23.70;49.30
69204;DHT22;56317;27.658;85.326;2023-01-10T04:37:09;24.40;50.40
69204;DHT22;56317;27.658;85.326;2023-01-10T04:39:37;25.10;47.00
69204;DHT22;56317;27.658;85.326;2023-01-10T04:42:04;25.70;47.20
69204;DHT22;56317;27.658;85.326;2023-01-10T04:44:31;26.30;48.00
69204;DHT22;56317;27.658;85.326;2023-01-10T04:46:58;26.70;47.50
69204;DHT22;56317;27.658;85.326;2023-01-10T04:49:26;26.80;43.50
69204;DHT22;56317;27.658;85.326;2023-01-10T04:51:53;27.20;42.70
69204;DHT22;56317;27.658;85.326;2023-01-10T04:54:21;27.70;41.80
69204;DHT22;56317;27.658;85.326;2023-01-10T04:56:49;28.10;42.50
69204;DHT22;56317;27.658;85.326;2023-01-10T04:59:19;28.50;42.20
69204;DHT22;56317;27.658;85.326;2023-01-10T05:01:47;28.90;41.90
69204;DHT22;56317;27.658;85.326;2023-01-10T05:04:14;29.50;41.30
69204;DHT22;56317;27.658;85.326;2023-01-10T05:06:41;30.20;39.60
69204;DHT22;56317;27.658;85.326;2023-01-10T05:09:09;30.30;38.50
69204;DHT22;56317;27.658;85.326;2023-01-10T05:11:36;30.50;38.80
69204;DHT22;56317;27.658;85.326;2023-01-10T05:14:03;30.70;37.90
69204;DHT22;56317;27.658;85.326;2023-01-10T05:16:31;31.20;37.20
69204;DHT22;56317;27.658;85.326;2023-01-10T05:18:58;31.90;36.80
69204;DHT22;56317;27.658;85.326;2023-01-10T05:21:26;32.60;35.80
69204;DHT22;56317;27.658;85.326;2023-01-10T05:23:53;33.20;35.50
69204;DHT22;56317;27.658;85.326;2023-01-10T05:26:22;33.40;34.70
69204;DHT22;56317;27.658;85.326;2023-01-10T05:28:49;33.60;33.80
69204;DHT22;56317;27.658;85.326;2023-01-10T05:31:23;33.80;33.30
69204;DHT22;56317;27.658;85.326;2023-01-10T05:33:51;33.70;32.70
69204;DHT22;56317;27.658;85.326;2023-01-10T05:36:18;33.90;33.40
69204;DHT22;56317;27.658;85.326;2023-01-10T05:38:46;34.10;32.70
69204;DHT22;56317;27.658;85.326;2023-01-10T05:41:14;34.30;31.90
69204;DHT22;56317;27.658;85.326;2023-01-10T05:43:43;34.80;31.90
69204;DHT22;56317;27.658;85.326;2023-01-10T05:46:11;35.10;31.80
69204;DHT22;56317;27.658;85.326;2023-01-10T05:48:38;35.60;31.40
69204;DHT22;56317;27.658;85.326;2023-01-10T05:51:06;35.60;31.00
69204;DHT22;56317;27.658;85.326;2023-01-10T05:53:33;35.90;31.80
69204;DHT22;56317;27.658;85.326;2023-01-10T05:56:01;36.60;30.50
69204;DHT22;56317;27.658;85.326;2023-01-10T05:58:29;36.70;29.70
69204;DHT22;56317;27.658;85.326;2023-01-10T06:00:57;37.20;29.80
69204;DHT22;56317;27.658;85.326;2023-01-10T06:03:25;37.80;28.90
69204;DHT22;56317;27.658;85.326;2023-01-10T06:05:53;38.10;28.90
69204;DHT22;56317;27.658;85.326;2023-01-10T06:08:21;38.40;28.80
69204;DHT22;56317;27.658;85.326;2023-01-10T06:10:49;38.70;28.60
69204;DHT22;56317;27.658;85.326;2023-01-10T06:13:17;39.20;29.10
69204;DHT22;56317;27.658;85.326;2023-01-10T06:15:44;39.10;28.30
69204;DHT22;56317;27.658;85.326;2023-01-10T06:18:12;39.20;28.10
69204;DHT22;56317;27.658;85.326;2023-01-10T06:20:42;38.10;28.00
69204;DHT22;56317;27.658;85.326;2023-01-10T06:23:09;37.40;28.80
69204;DHT22;56317;27.658;85.326;2023-01-10T06:25:38;38.10;28.30
69204;DHT22;56317;27.658;85.326;2023-01-10T06:28:09;39.00;28.00
69204;DHT22;56317;27.658;85.326;2023-01-10T06:30:38;39.30;27.90
69204;DHT22;56317;27.658;85.326;2023-01-10T06:33:08;39.30;28.10
69204;DHT22;56317;27.658;85.326;2023-01-10T06:35:36;39.80;27.80
69204;DHT22;56317;27.658;85.326;2023-01-10T06:38:03;40.10;27.30
69204;DHT22;56317;27.658;85.326;2023-01-10T06:40:31;40.70;27.20
69204;DHT22;56317;27.658;85.326;2023-01-10T06:42:58;41.30;27.20
69204;DHT22;56317;27.658;85.326;2023-01-10T06:45:25;42.00;27.20
69204;DHT22;56317;27.658;85.326;2023-01-10T06:47:53;42.20;26.80
69204;DHT22;56317;27.658;85.326;2023-01-10T06:50:20;42.50;27.00
69204;DHT22;56317;27.658;85.326;2023-01-10T06:52:55;42.80;26.80
69204;DHT22;56317;27.658;85.326;2023-01-10T06:55:23;42.50;26.10
69204;DHT22;56317;27.658;85.326;2023-01-10T06:57:58;42.30;26.10
69204;DHT22;56317;27.658;85.326;2023-01-10T07:00:27;42.20;26.10
69204;DHT22;56317;27.658;85.326;2023-01-10T07:02:57;41.70;26.00
69204;DHT22;56317;27.658;85.326;2023-01-10T07:05:25;41.60;26.20
69204;DHT22;56317;27.658;85.326;2023-01-10T07:07:52;42.00;26.20
69204;DHT22;56317;27.658;85.326;2023-01-10T07:10:20;42.60;26.00
69204;DHT22;56317;27.658;85.326;2023-01-10T07:12:47;42.90;25.90
69204;DHT22;56317;27.658;85.326;2023-01-10T07:15:16;42.90;25.60
69204;DHT22;56317;27.658;85.326;2023-01-10T07:17:44;43.40;25.40
69204;DHT22;56317;27.658;85.326;2023-01-10T07:20:11;43.70;25.50
69204;DHT22;56317;27.658;85.326;2023-01-10T07:22:39;43.90;25.60
69204;DHT22;56317;27.658;85.326;2023-01-10T07:25:06;44.20;25.40
69204;DHT22;56317;27.658;85.326;2023-01-10T07:27:34;44.70;25.40
69204;DHT22;56317;27.658;85.326;2023-01-10T07:30:01;45.00;25.30
69204;DHT22;56317;27.658;85.326;2023-01-10T07:32:28;45.30;25.30
69204;DHT22;56317;27.658;85.326;2023-01-10T07:34:56;45.40;24.60
69204;DHT22;56317;27.658;85.326;2023-01-10T07:37:23;45.60;24.80
69204;DHT22;56317;27.658;85.326;2023-01-10T07:39:50;45.40;24.80
69204;DHT22;56317;27.658;85.326;2023-01-10T07:42:18;44.70;25.00
69204;DHT22;56317;27.658;85.326;2023-01-10T07:44:45;44.20;25.40
69204;DHT22;56317;27.658;85.326;2023-01-10T07:47:12;44.30;25.70
69204;DHT22;56317;27.658;85.326;2023-01-10T07:49:39;44.40;25.10
69204;DHT22;56317;27.658;85.326;2023-01-10T07:52:07;44.70;25.10
69204;DHT22;56317;27.658;85.326;2023-01-10T07:54:35;45.00;25.20
69204;DHT22;56317;27.658;85.326;2023-01-10T07:57:02;45.00;24.70
69204;DHT22;56317;27.658;85.326;2023-01-10T07:59:29;44.80;25.00
69204;DHT22;56317;27.658;85.326;2023-01-10T08:01:56;44.90;24.60
69204;DHT22;56317;27.658;85.326;2023-01-10T08:04:23;45.00;24.50
69204;DHT22;56317;27.658;85.326;2023-01-10T08:06:53;44.90;24.60
69204;DHT22;56317;27.658;85.326;2023-01-10T08:09:20;45.10;24.80
69204;DHT22;56317;27.658;85.326;2023-01-10T08:11:48;45.30;24.40
69204;DHT22;56317;27.658;85.326;2023-01-10T08:14:15;45.40;24.50
69204;DHT22;56317;27.658;85.326;2023-01-10T08:16:42;45.50;24.40
69204;DHT22;56317;27.658;85.326;2023-01-10T08:19:09;45.80;24.60
69204;DHT22;56317;27.658;85.326;2023-01-10T08:21:42;45.90;24.70
69204;DHT22;56317;27.658;85.326;2023-01-10T08:24:10;46.00;24.20
69204;DHT22;56317;27.658;85.326;2023-01-10T08:26:37;45.60;24.40
69204;DHT22;56317;27.658;85.326;2023-01-10T08:29:04;45.60;24.30
69204;DHT22;56317;27.658;85.326;2023-01-10T08:31:33;45.60;24.60
69204;DHT22;56317;27.658;85.326;2023-01-10T08:34:00;45.70;24.70
69204;DHT22;56317;27.658;85.326;2023-01-10T08:36:28;45.90;24.70
69204;DHT22;56317;27.658;85.326;2023-01-10T08:38:55;46.00;24.50
69204;DHT22;56317;27.658;85.326;2023-01-10T08:41:23;46.10;24.30
69204;DHT22;56317;27.658;85.326;2023-01-10T08:43:50;46.00;24.40
69204;DHT22;56317;27.658;85.326;2023-01-10T08:46:18;46.00;24.20
69204;DHT22;56317;27.658;85.326;2023-01-10T08:48:46;45.70;24.00
69204;DHT22;56317;27.658;85.326;2023-01-10T08:51:16;45.60;24.30
69204;DHT22;56317;27.658;85.326;2023-01-10T08:53:43;45.70;24.20
69204;DHT22;56317;27.658;85.326;2023-01-10T08:56:11;45.80;24.00
69204;DHT22;56317;27.658;85.326;2023-01-10T08:58:38;46.00;23.90
69204;DHT22;56317;27.658;85.326;2023-01-10T09:01:09;46.20;24.10
69204;DHT22;56317;27.658;85.326;2023-01-10T09:03:38;46.30;23.90
69204;DHT22;56317;27.658;85.326;2023-01-10T09:06:06;46.40;23.70
69204;DHT22;56317;27.658;85.326;2023-01-10T09:08:35;46.20;24.00
69204;DHT22;56317;27.658;85.326;2023-01-10T09:11:03;45.70;24.00
69204;DHT22;56317;27.658;85.326;2023-01-10T09:13:31;45.30;23.80
69204;DHT22;56317;27.658;85.326;2023-01-10T09:15:59;45.00;23.60
69204;DHT22;56317;27.658;85.326;2023-01-10T09:18:26;44.60;23.70
69204;DHT22;56317;27.658;85.326;2023-01-10T09:20:54;44.60;24.10
69204;DHT22;56317;27.658;85.326;2023-01-10T09:23:22;44.60;23.80
69204;DHT22;56317;27.658;85.326;2023-01-10T09:25:52;44.50;23.60
69204;DHT22;56317;27.658;85.326;2023-01-10T09:28:21;44.50;23.90
69204;DHT22;56317;27.658;85.326;2023-01-10T09:30:50;44.60;23.80
69204;DHT22;56317;27.658;85.326;2023-01-10T09:33:18;44.70;23.70
69204;DHT22;56317;27.658;85.326;2023-01-10T09:35:45;44.40;23.60
69204;DHT22;56317;27.658;85.326;2023-01-10T09:38:15;44.20;23.90
69204;DHT22;56317;27.658;85.326;2023-01-10T09:41:01;44.20;24.10
69204;DHT22;56317;27.658;85.326;2023-01-10T09:52:03;44.30;24.10
69204;DHT22;56317;27.658;85.326;2023-01-10T09:54:40;44.00;24.40
69204;DHT22;56317;27.658;85.326;2023-01-10T09:57:15;43.90;24.60
69204;DHT22;56317;27.658;85.326;2023-01-10T09:59:43;43.60;24.50
69204;DHT22;56317;27.658;85.326;2023-01-10T10:02:51;43.30;24.50
69204;DHT22;56317;27.658;85.326;2023-01-10T10:05:25;42.80;24.70
69204;DHT22;56317;27.658;85.326;2023-01-10T10:08:00;42.70;24.90
69204;DHT22;56317;27.658;85.326;2023-01-10T10:10:39;42.30;24.70
69204;DHT22;56317;27.658;85.326;2023-01-10T10:27:20;40.00;25.40
69204;DHT22;56317;27.658;85.326;2023-01-10T10:29:57;39.40;25.50
69204;DHT22;56317;27.658;85.326;2023-01-10T10:35:38;37.50;26.10
69204;DHT22;56317;27.658;85.326;2023-01-10T10:38:14;36.60;26.10
69204;DHT22;56317;27.658;85.326;2023-01-10T10:40:44;35.90;27.10
69204;DHT22;56317;27.658;85.326;2023-01-10T10:43:17;35.10;27.00
69204;DHT22;56317;27.658;85.326;2023-01-10T10:45:54;34.10;27.10
69204;DHT22;56317;27.658;85.326;2023-01-10T10:48:30;32.70;27.90
69204;DHT22;56317;27.658;85.326;2023-01-10T10:53:44;29.50;29.80
69204;DHT22;56317;27.658;85.326;2023-01-10T10:56:15;28.20;30.00
69204;DHT22;56317;27.658;85.326;2023-01-10T10:58:46;27.50;30.90
69204;DHT22;56317;27.658;85.326;2023-01-10T11:01:15;26.40;31.20
69204;DHT22;56317;27.658;85.326;2023-01-10T11:06:16;23.90;34.50
69204;DHT22;56317;27.658;85.326;2023-01-10T11:08:47;22.70;35.90
69204;DHT22;56317;27.658;85.326;2023-01-10T11:11:48;21.70;36.60
69204;DHT22;56317;27.658;85.326;2023-01-10T11:14:40;20.60;38.60
69204;DHT22;56317;27.658;85.326;2023-01-10T11:17:37;19.80;39.20
69204;DHT22;56317;27.658;85.326;2023-01-10T11:20:15;19.00;40.70
69204;DHT22;56317;27.658;85.326;2023-01-10T11:22:48;18.30;41.30
69204;DHT22;56317;27.658;85.326;2023-01-10T11:25:19;17.90;43.40
69204;DHT22;56317;27.658;85.326;2023-01-10T11:28:13;17.40;43.60
69204;DHT22;56317;27.658;85.326;2023-01-10T11:30:46;17.00;43.70
69204;DHT22;56317;27.658;85.326;2023-01-10T11:33:22;16.60;45.70
69204;DHT22;56317;27.658;85.326;2023-01-10T11:36:04;16.30;46.30
69204;DHT22;56317;27.658;85.326;2023-01-10T11:38:33;16.00;46.60
69204;DHT22;56317;27.658;85.326;2023-01-10T11:41:24;15.70;47.40
69204;DHT22;56317;27.658;85.326;2023-01-10T11:43:52;15.50;48.50
69204;DHT22;56317;27.658;85.326;2023-01-10T11:46:43;15.30;47.50
69204;DHT22;56317;27.658;85.326;2023-01-10T11:49:19;15.00;49.60
69204;DHT22;56317;27.658;85.326;2023-01-10T11:51:51;14.80;49.10
69204;DHT22;56317;27.658;85.326;2023-01-10T11:54:26;14.70;49.60
69204;DHT22;56317;27.658;85.326;2023-01-10T11:57:07;14.50;50.60
69204;DHT22;56317;27.658;85.326;2023-01-10T11:59:35;14.40;51.40
69204;DHT22;56317;27.658;85.326;2023-01-10T12:02:21;14.30;52.40
69204;DHT22;56317;27.658;85.326;2023-01-10T12:04:50;14.10;52.10
69204;DHT22;56317;27.658;85.326;2023-01-10T12:07:18;14.00;51.80
69204;DHT22;56317;27.658;85.326;2023-01-10T12:12:31;13.60;52.40
69204;DHT22;56317;27.658;85.326;2023-01-10T12:15:25;13.40;53.30
69204;DHT22;56317;27.658;85.326;2023-01-10T12:17:55;13.30;54.30
69204;DHT22;56317;27.658;85.326;2023-01-10T12:20:26;13.30;55.20
69204;DHT22;56317;27.658;85.326;2023-01-10T12:22:58;13.10;54.70
69204;DHT22;56317;27.658;85.326;2023-01-10T12:28:00;12.80;55.50
69204;DHT22;56317;27.658;85.326;2023-01-10T12:30:33;12.70;55.90
69204;DHT22;56317;27.658;85.326;2023-01-10T12:33:10;12.50;57.10
69204;DHT22;56317;27.658;85.326;2023-01-10T12:35:45;12.30;56.50
69204;DHT22;56317;27.658;85.326;2023-01-10T12:38:25;12.20;57.60
69204;DHT22;56317;27.658;85.326;2023-01-10T12:41:17;12.10;58.00
69204;DHT22;56317;27.658;85.326;2023-01-10T12:44:13;11.90;58.30
69204;DHT22;56317;27.658;85.326;2023-01-10T12:46:53;11.80;58.80
69204;DHT22;56317;27.658;85.326;2023-01-10T12:49:25;11.70;59.50
69204;DHT22;56317;27.658;85.326;2023-01-10T12:51:57;11.70;60.30
69204;DHT22;56317;27.658;85.326;2023-01-10T12:54:27;11.60;61.10
69204;DHT22;56317;27.658;85.326;2023-01-10T12:56:58;11.60;61.20
69204;DHT22;56317;27.658;85.326;2023-01-10T12:59:37;11.60;62.20
69204;DHT22;56317;27.658;85.326;2023-01-10T13:02:17;11.70;63.30
69204;DHT22;56317;27.658;85.326;2023-01-10T13:04:48;11.80;64.60
69204;DHT22;56317;27.658;85.326;2023-01-10T13:07:17;11.80;64.20
69204;DHT22;56317;27.658;85.326;2023-01-10T13:09:46;11.90;64.60
69204;DHT22;56317;27.658;85.326;2023-01-10T13:12:20;12.00;64.80
69204;DHT22;56317;27.658;85.326;2023-01-10T13:22:46;12.10;66.80
69204;DHT22;56317;27.658;85.326;2023-01-10T13:25:32;12.10;68.60
69204;DHT22;56317;27.658;85.326;2023-01-10T13:30:51;12.10;68.70
69204;DHT22;56317;27.658;85.326;2023-01-10T13:33:21;12.10;70.00
69204;DHT22;56317;27.658;85.326;2023-01-10T13:35:51;12.10;69.40
69204;DHT22;56317;27.658;85.326;2023-01-10T13:38:31;12.10;71.00
69204;DHT22;56317;27.658;85.326;2023-01-10T13:41:07;12.10;71.40
69204;DHT22;56317;27.658;85.326;2023-01-10T13:46:32;12.10;71.80
69204;DHT22;56317;27.658;85.326;2023-01-10T13:51:30;11.80;72.40
69204;DHT22;56317;27.658;85.326;2023-01-10T13:53:59;11.70;72.60
69204;DHT22;56317;27.658;85.326;2023-01-10T13:56:41;11.60;73.40
69204;DHT22;56317;27.658;85.326;2023-01-10T13:59:58;11.50;72.50
69204;DHT22;56317;27.658;85.326;2023-01-10T14:02:22;11.40;74.40
69204;DHT22;56317;27.658;85.326;2023-01-10T14:05:13;11.40;75.60
69204;DHT22;56317;27.658;85.326;2023-01-10T14:07:48;11.30;75.90
69204;DHT22;56317;27.658;85.326;2023-01-10T14:10:25;11.30;77.10
69204;DHT22;56317;27.658;85.326;2023-01-10T14:12:54;11.30;78.90
69204;DHT22;56317;27.658;85.326;2023-01-10T14:15:26;11.30;78.90
69204;DHT22;56317;27.658;85.326;2023-01-10T14:18:03;11.20;77.90
69204;DHT22;56317;27.658;85.326;2023-01-10T14:20:34;11.00;78.80
69204;DHT22;56317;27.658;85.326;2023-01-10T14:25:31;10.80;80.90
69204;DHT22;56317;27.658;85.326;2023-01-10T14:28:00;10.80;82.40
69204;DHT22;56317;27.658;85.326;2023-01-10T14:30:33;10.70;82.50
69204;DHT22;56317;27.658;85.326;2023-01-10T14:33:11;10.60;84.50
69204;DHT22;56317;27.658;85.326;2023-01-10T14:35:48;10.70;85.70
69204;DHT22;56317;27.658;85.326;2023-01-10T14:38:23;10.70;86.00
69204;DHT22;56317;27.658;85.326;2023-01-10T14:41:17;10.60;86.50
69204;DHT22;56317;27.658;85.326;2023-01-10T14:49:27;10.50;88.10
69204;DHT22;56317;27.658;85.326;2023-01-10T14:54:45;10.40;89.40
69204;DHT22;56317;27.658;85.326;2023-01-10T14:57:18;10.30;90.10
69204;DHT22;56317;27.658;85.326;2023-01-10T14:59:47;10.30;90.50
69204;DHT22;56317;27.658;85.326;2023-01-10T15:02:19;10.30;90.90
69204;DHT22;56317;27.658;85.326;2023-01-10T15:04:59;10.10;90.90
69204;DHT22;56317;27.658;85.326;2023-01-10T15:07:33;10.00;91.60
69204;DHT22;56317;27.658;85.326;2023-01-10T15:10:00;10.00;91.70
69204;DHT22;56317;27.658;85.326;2023-01-10T15:12:30;9.80;92.10
69204;DHT22;56317;27.658;85.326;2023-01-10T15:15:10;9.70;92.40
69204;DHT22;56317;27.658;85.326;2023-01-10T15:17:39;9.70;93.10
69204;DHT22;56317;27.658;85.326;2023-01-10T15:20:17;9.70;93.80
69204;DHT22;56317;27.658;85.326;2023-01-10T15:22:57;9.70;93.70
69204;DHT22;56317;27.658;85.326;2023-01-10T15:25:26;9.60;93.90
69204;DHT22;56317;27.658;85.326;2023-01-10T15:27:55;9.60;94.50
69204;DHT22;56317;27.658;85.326;2023-01-10T15:30:28;9.60;95.10
69204;DHT22;56317;27.658;85.326;2023-01-10T15:33:03;9.60;95.50
69204;DHT22;56317;27.658;85.326;2023-01-10T15:35:31;9.60;95.30
69204;DHT22;56317;27.658;85.326;2023-01-10T15:38:07;9.60;95.30
69204;DHT22;56317;27.658;85.326;2023-01-10T15:40:36;9.60;95.60
69204;DHT22;56317;27.658;85.326;2023-01-10T15:45:45;9.60;96.00
69204;DHT22;56317;27.658;85.326;2023-01-10T15:53:56;9.60;96.50
69204;DHT22;56317;27.658;85.326;2023-01-10T15:59:01;9.70;96.60
69204;DHT22;56317;27.658;85.326;2023-01-10T16:01:30;9.70;96.60
69204;DHT22;56317;27.658;85.326;2023-01-10T16:04:02;9.70;96.40
69204;DHT22;56317;27.658;85.326;2023-01-10T16:06:33;9.60;96.30
69204;DHT22;56317;27.658;85.326;2023-01-10T16:09:03;9.50;96.50
69204;DHT22;56317;27.658;85.326;2023-01-10T16:11:49;9.40;96.70
69204;DHT22;56317;27.658;85.326;2023-01-10T16:14:35;9.20;96.80
69204;DHT22;56317;27.658;85.326;2023-01-10T16:17:03;9.00;97.40
69204;DHT22;56317;27.658;85.326;2023-01-10T16:19:31;8.90;97.80
69204;DHT22;56317;27.658;85.326;2023-01-10T16:22:00;8.80;98.30
69204;DHT22;56317;27.658;85.326;2023-01-10T16:24:34;8.70;98.60
69204;DHT22;56317;27.658;85.326;2023-01-10T16:27:05;8.50;98.90
69204;DHT22;56317;27.658;85.326;2023-01-10T16:29:33;8.50;99.40
69204;DHT22;56317;27.658;85.326;2023-01-10T16:32:00;8.50;99.60
69204;DHT22;56317;27.658;85.326;2023-01-10T16:34:27;8.40;99.90
69204;DHT22;56317;27.658;85.326;2023-01-10T16:36:55;8.40;99.90
69204;DHT22;56317;27.658;85.326;2023-01-10T16:39:23;8.30;99.90
69204;DHT22;56317;27.658;85.326;2023-01-10T16:41:50;8.10;99.90
69204;DHT22;56317;27.658;85.326;2023-01-10T16:44:35;8.10;99.90
69204;DHT22;56317;27.658;85.326;2023-01-10T16:47:03;8.00;99.90
69204;DHT22;56317;27.658;85.326;2023-01-10T16:49:30;8.00;99.90
69204;DHT22;56317;27.658;85.326;2023-01-10T16:51:57;8.00;99.90
69204;DHT22;56317;27.658;85.326;2023-01-10T16:54:25;7.90;99.90
69204;DHT22;56317;27.658;85.326;2023-01-10T16:56:53;7.80;99.90
69204;DHT22;56317;27.658;85.326;2023-01-10T16:59:21;7.80;99.90
69204;DHT22;56317;27.658;85.326;2023-01-10T17:01:53;7.80;99.90
69204;DHT22;56317;27.658;85.326;2023-01-10T17:04:23;7.70;99.90
69204;DHT22;56317;27.658;85.326;2023-01-10T17:06:50;7.70;99.90
69204;DHT22;56317;27.658;85.326;2023-01-10T17:09:27;7.60;99.90
69204;DHT22;56317;27.658;85.326;2023-01-10T17:12:06;7.50;99.90
69204;DHT22;56317;27.658;85.326;2023-01-10T17:14:36;7.50;99.90
69204;DHT22;56317;27.658;85.326;2023-01-10T17:17:04;7.40;99.90
69204;DHT22;56317;27.658;85.326;2023-01-10T17:19:31;7.30;99.90
69204;DHT22;56317;27.658;85.326;2023-01-10T17:21:59;7.30;99.90
69204;DHT22;56317;27.658;85.326;2023-01-10T17:24:26;7.30;99.90
69204;DHT22;56317;27.658;85.326;2023-01-10T17:26:55;7.30;99.90
69204;DHT22;56317;27.658;85.326;2023-01-10T17:29:22;7.30;99.90